Ruthton, Minnesota
Current Conditions -  °F | °C
As of 7:14 PM on Sunday 23 Nov 2014 (Local Time) from KPQN Reporting Station
Overcast Overcast  
Wind Chill: 18°   Ceiling: 2600
Heat Index: 30°   Visibility: 10mi
Dew Point: 23°   Wind: 18mph
Humidity: 75%   Direction: 320°NW
Pressure: 29.51"   Gusts: 30mph
Location:  44.18°N, 96.1°W
Report Text: KPQN 240114Z AUTO 32016G26KT 10SM OVC026 M01/M05 A2951 RMK AO2
Loading
Personal Weather Stations






























Interactive Weather Map New forecast layout! Learn more

10-Day Weather Forecast

Advertisements
Track Severe Weather on mobile